createdAt,value
2018-02-22T00:00:51.628Z,28.60
2018-02-22T00:03:18.585Z,39.20
2018-02-22T00:05:44.776Z,27.13
2018-02-22T00:08:10.992Z,34.63
2018-02-22T00:10:37.185Z,26.63
2018-02-22T00:13:03.400Z,29.97
2018-02-22T00:15:29.592Z,26.70
2018-02-22T00:17:56.237Z,34.07
2018-02-22T00:20:22.424Z,28.93
2018-02-22T00:22:48.964Z,24.47
2018-02-22T00:25:15.151Z,35.40
2018-02-22T00:27:42.104Z,24.63
2018-02-22T00:30:08.323Z,39.83
2018-02-22T00:32:35.253Z,27.50
2018-02-22T00:35:02.220Z,25.93
2018-02-22T00:37:28.411Z,28.83
2018-02-22T00:39:56.112Z,32.13
2018-02-22T00:42:22.312Z,37.83
2018-02-22T00:44:48.533Z,31.00
2018-02-22T00:47:14.728Z,30.47
2018-02-22T00:49:40.948Z,27.70
2018-02-22T00:52:07.487Z,26.67
2018-02-22T00:54:33.699Z,38.50
2018-02-22T00:56:59.887Z,32.80
2018-02-22T00:59:27.607Z,37.53
2018-02-22T01:01:53.800Z,30.83
2018-02-22T01:04:20.731Z,37.70
2018-02-22T01:06:46.944Z,30.70
2018-02-22T01:09:13.140Z,29.57
2018-02-22T01:11:39.367Z,29.70
2018-02-22T01:14:05.585Z,33.23
2018-02-22T01:16:31.805Z,28.33
2018-02-22T01:18:58.011Z,27.40
2018-02-22T01:21:24.968Z,32.13
2018-02-22T01:23:51.901Z,27.40
2018-02-22T01:26:19.016Z,34.47
2018-02-22T01:28:45.204Z,31.00
2018-02-22T01:31:11.396Z,31.67
2018-02-22T01:33:37.613Z,32.10
2018-02-22T01:36:03.805Z,35.73
2018-02-22T01:38:30.021Z,39.53
2018-02-22T01:40:56.216Z,36.73
2018-02-22T01:43:22.441Z,37.43
2018-02-22T01:45:48.637Z,36.83
2018-02-22T01:48:15.163Z,33.13
2018-02-22T01:50:41.416Z,35.90
2018-02-22T01:53:07.631Z,37.70
2018-02-22T01:55:33.816Z,36.27
2018-02-22T01:58:00.780Z,38.20
2018-02-22T02:00:26.956Z,34.93
2018-02-22T02:02:53.172Z,37.53
2018-02-22T02:05:19.356Z,35.53
2018-02-22T02:07:45.572Z,34.57
2018-02-22T02:10:12.505Z,38.23
2018-02-22T02:12:39.117Z,37.97
2018-02-22T02:15:07.496Z,34.07
2018-02-22T02:17:34.008Z,39.93
2018-02-22T02:20:00.207Z,35.53
2018-02-22T02:22:26.437Z,34.97
2018-02-22T02:24:52.633Z,34.70
2018-02-22T02:27:18.852Z,35.07
2018-02-22T02:29:45.051Z,25.90
2018-02-22T02:32:11.280Z,38.97
2018-02-22T02:34:37.473Z,32.53
2018-02-22T02:37:04.432Z,42.40
2018-02-22T02:39:30.620Z,44.77
2018-02-22T02:41:56.845Z,35.53
2018-02-22T02:44:23.084Z,32.50
2018-02-22T02:46:49.272Z,29.37
2018-02-22T02:49:15.494Z,38.47
2018-02-22T02:51:42.184Z,40.43
2018-02-22T02:54:08.408Z,37.27
2018-02-22T02:56:34.594Z,42.73
2018-02-22T02:59:00.809Z,33.63
2018-02-22T03:01:27.004Z,41.80
2018-02-22T03:03:53.960Z,40.70
2018-02-22T03:06:20.901Z,39.43
2018-02-22T03:08:47.858Z,29.47
2018-02-22T03:11:14.787Z,41.20
2018-02-22T03:13:41.753Z,48.67
2018-02-22T03:16:08.684Z,41.37
2018-02-22T03:18:35.639Z,45.80
2018-02-22T03:21:02.577Z,38.03
2018-02-22T03:23:29.536Z,43.73
2018-02-22T03:25:55.736Z,50.07
2018-02-22T03:28:23.441Z,41.23
2018-02-22T03:30:49.633Z,40.93
2018-02-22T03:33:15.853Z,41.07
2018-02-22T03:35:42.037Z,40.27
2018-02-22T03:38:08.329Z,44.33
2018-02-22T03:40:35.266Z,34.27
2018-02-22T03:43:01.483Z,38.27
2018-02-22T03:45:28.429Z,40.33
2018-02-22T03:47:54.645Z,43.37
2018-02-22T03:50:20.860Z,47.50
2018-02-22T03:52:47.108Z,51.17
2018-02-22T03:55:13.297Z,44.33
2018-02-22T03:57:39.520Z,39.00
2018-02-22T04:00:05.740Z,48.93
2018-02-22T04:02:32.699Z,53.30
2018-02-22T04:04:58.896Z,44.23
2018-02-22T04:07:25.857Z,51.80
2018-02-22T04:09:52.840Z,42.30
2018-02-22T04:12:19.027Z,39.80
2018-02-22T04:14:45.989Z,40.07
2018-02-22T04:17:12.176Z,40.67
2018-02-22T04:19:38.411Z,46.20
2018-02-22T04:22:04.608Z,48.80
2018-02-22T04:24:30.823Z,54.30
2018-02-22T04:26:57.017Z,48.10
2018-02-22T04:29:23.989Z,47.27
2018-02-22T04:31:50.176Z,49.17
2018-02-22T04:34:17.139Z,44.33
2018-02-22T04:36:50.915Z,47.63
2018-02-22T04:39:17.129Z,49.27
2018-02-22T04:41:43.331Z,43.27
2018-02-22T04:44:09.556Z,43.07
2018-02-22T04:46:35.742Z,44.27
2018-02-22T04:49:01.977Z,36.57
2018-02-22T04:51:28.944Z,37.10
2018-02-22T04:53:55.156Z,34.07
2018-02-22T04:56:22.084Z,46.23
2018-02-22T04:58:48.323Z,37.90
2018-02-22T05:01:16.080Z,37.90
2018-02-22T05:03:42.305Z,37.90
2018-02-22T05:06:10.045Z,42.90
2018-02-22T05:08:36.269Z,50.77
2018-02-22T05:11:02.457Z,46.93
2018-02-22T05:13:29.420Z,43.80
2018-02-22T05:15:55.608Z,41.63
2018-02-22T05:18:22.025Z,45.13
2018-02-22T05:20:48.212Z,52.80
2018-02-22T05:23:14.400Z,44.07
2018-02-22T05:25:40.616Z,53.57
2018-02-22T05:28:07.280Z,46.97
2018-02-22T05:30:34.236Z,47.97
2018-02-22T05:33:01.168Z,49.30
2018-02-22T05:35:28.119Z,42.20
2018-02-22T05:37:55.061Z,48.37
2018-02-22T05:42:46.096Z,53.20
2018-02-22T05:45:13.056Z,50.60
2018-02-22T05:47:39.244Z,45.27
2018-02-22T05:50:05.473Z,43.50
2018-02-22T05:52:31.689Z,41.10
2018-02-22T05:54:57.913Z,44.93
2018-02-22T05:57:24.095Z,46.90
2018-02-22T05:59:50.316Z,35.77
2018-02-22T06:02:17.257Z,42.97
2018-02-22T06:04:44.221Z,52.10
2018-02-22T06:07:10.416Z,52.50
2018-02-22T06:09:36.641Z,64.13
2018-02-22T06:12:02.828Z,42.07
2018-02-22T06:14:29.073Z,49.63
2018-02-22T06:16:55.269Z,49.67
2018-02-22T06:19:21.499Z,51.07
2018-02-22T06:21:47.716Z,48.60
2018-02-22T06:24:13.915Z,51.20
2018-02-22T06:26:40.132Z,52.40
2018-02-22T06:29:06.320Z,45.03
2018-02-22T06:31:32.550Z,49.73
2018-02-22T06:33:58.768Z,47.23
2018-02-22T06:36:24.993Z,53.43
2018-02-22T06:38:51.184Z,47.00
2018-02-22T06:41:17.407Z,47.10
2018-02-22T06:43:43.592Z,47.17
2018-02-22T06:46:10.063Z,54.47
2018-02-22T06:48:36.256Z,52.60
2018-02-22T06:51:02.475Z,49.43
2018-02-22T06:53:28.700Z,42.93
2018-02-22T06:55:54.893Z,38.57
2018-02-22T06:58:21.112Z,45.90
2018-02-22T07:00:47.325Z,48.10
2018-02-22T07:03:13.544Z,54.23
2018-02-22T07:05:39.731Z,37.43
2018-02-22T07:08:05.967Z,55.10
2018-02-22T07:10:32.161Z,46.50
2018-02-22T07:12:58.381Z,46.03
2018-02-22T07:15:24.576Z,43.40
2018-02-22T07:17:50.801Z,30.67
2018-02-22T07:20:17.072Z,53.13
2018-02-22T07:22:44.052Z,51.57
2018-02-22T07:25:10.989Z,44.80
2018-02-22T07:27:37.953Z,48.20
2018-02-22T07:30:04.145Z,44.10
2018-02-22T07:32:31.104Z,50.03
2018-02-22T07:34:58.960Z,45.20
2018-02-22T07:37:25.180Z,43.40
2018-02-22T07:39:51.373Z,36.30
2018-02-22T07:42:17.591Z,38.40
2018-02-22T07:44:43.780Z,47.47
2018-02-22T07:47:17.064Z,46.37
2018-02-22T07:49:43.257Z,48.00
2018-02-22T07:52:09.509Z,40.63
2018-02-22T07:54:35.709Z,41.10
2018-02-22T07:57:01.925Z,41.00
2018-02-22T07:59:28.112Z,48.77
2018-02-22T08:01:54.377Z,43.17
2018-02-22T08:04:21.288Z,40.63
2018-02-22T08:06:47.524Z,50.30
2018-02-22T08:09:13.712Z,50.30
2018-02-22T08:11:39.940Z,45.30
2018-02-22T08:14:06.128Z,45.87
2018-02-22T08:16:33.100Z,41.80
2018-02-22T08:18:59.300Z,50.63
2018-02-22T08:21:26.512Z,33.23
2018-02-22T08:23:52.699Z,47.10
2018-02-22T08:26:18.902Z,43.17
2018-02-22T08:28:46.204Z,39.10
2018-02-22T08:31:12.421Z,41.60
2018-02-22T08:33:38.696Z,44.13
2018-02-22T08:36:04.884Z,47.43
2018-02-22T08:38:31.103Z,49.97
2018-02-22T08:40:57.293Z,47.80
2018-02-22T08:43:23.670Z,40.50
2018-02-22T08:45:49.944Z,45.87
2018-02-22T08:48:16.156Z,45.43
2018-02-22T08:50:42.380Z,47.43
2018-02-22T08:53:08.606Z,53.40
2018-02-22T08:55:41.834Z,42.07
2018-02-22T08:58:08.044Z,39.53
2018-02-22T09:00:34.244Z,38.90
2018-02-22T09:03:00.464Z,42.93
2018-02-22T09:05:26.653Z,39.97
2018-02-22T09:07:53.621Z,39.00
2018-02-22T09:10:19.816Z,38.07
2018-02-22T09:12:46.096Z,33.50
2018-02-22T09:15:12.284Z,32.47
2018-02-22T09:17:38.505Z,33.37
2018-02-22T09:20:04.697Z,33.17
2018-02-22T09:22:30.997Z,30.43
2018-02-22T09:24:57.188Z,37.80
2018-02-22T09:27:23.684Z,33.03
2018-02-22T09:29:49.942Z,32.43
2018-02-22T09:32:16.174Z,38.03
2018-02-22T09:34:42.356Z,31.07
2018-02-22T09:37:08.572Z,30.37
2018-02-22T09:39:35.501Z,35.70
2018-02-22T09:42:02.491Z,39.00
2018-02-22T09:44:28.676Z,34.23
2018-02-22T09:46:55.616Z,32.87
2018-02-22T09:49:21.841Z,32.83
2018-02-22T09:51:48.060Z,41.13
2018-02-22T09:54:14.278Z,23.47
2018-02-22T09:56:40.468Z,30.37
2018-02-22T09:59:06.688Z,30.87
2018-02-22T10:01:32.875Z,28.90
2018-02-22T10:03:59.123Z,28.97
2018-02-22T10:06:26.048Z,25.40
2018-02-22T10:08:52.272Z,27.43
2018-02-22T10:11:18.573Z,24.50
2018-02-22T10:13:44.809Z,19.40
2018-02-22T10:16:11.188Z,26.63
2018-02-22T10:18:38.180Z,21.97
2018-02-22T10:21:04.368Z,23.20
2018-02-22T10:23:31.345Z,20.37
2018-02-22T10:25:57.535Z,16.90
2018-02-22T10:28:23.747Z,18.60
2018-02-22T10:30:49.969Z,24.27
2018-02-22T10:33:16.197Z,20.30
2018-02-22T10:35:42.389Z,21.03
2018-02-22T10:38:08.610Z,26.03
2018-02-22T10:40:34.821Z,23.03
2018-02-22T10:43:01.793Z,23.17
2018-02-22T10:45:28.042Z,18.40
2018-02-22T10:47:54.328Z,18.03
2018-02-22T10:50:21.310Z,27.30
2018-02-22T10:52:47.525Z,23.87
2018-02-22T10:55:13.709Z,23.40
2018-02-22T10:57:40.129Z,27.83
2018-02-22T11:00:06.332Z,20.77
2018-02-22T11:02:38.841Z,22.93
2018-02-22T11:05:05.066Z,28.67
2018-02-22T11:07:31.264Z,23.33
2018-02-22T11:09:57.479Z,20.13
2018-02-22T11:12:30.739Z,19.10
2018-02-22T11:14:56.952Z,27.83
2018-02-22T11:17:23.137Z,30.27
2018-02-22T11:19:49.363Z,29.27
2018-02-22T11:22:15.560Z,31.70
2018-02-22T11:24:42.592Z,27.20
2018-02-22T11:27:08.775Z,26.90
2018-02-22T11:29:34.999Z,33.33
2018-02-22T11:32:01.189Z,29.47
2018-02-22T11:34:28.149Z,29.10
2018-02-22T11:36:55.088Z,36.23
2018-02-22T11:39:22.045Z,32.27
2018-02-22T11:41:48.995Z,35.90
2018-02-22T11:44:15.220Z,28.20
2018-02-22T11:46:41.421Z,28.83
2018-02-22T11:49:07.643Z,34.50
2018-02-22T11:51:33.860Z,28.53
2018-02-22T11:54:00.088Z,32.77
2018-02-22T11:56:26.280Z,21.37
2018-02-22T11:58:52.500Z,17.93
2018-02-22T12:01:18.704Z,15.63
2018-02-22T12:03:45.673Z,28.90
2018-02-22T12:06:11.861Z,16.40
2018-02-22T12:08:38.072Z,21.57
2018-02-22T12:11:04.283Z,16.77
2018-02-22T12:13:30.509Z,21.83
2018-02-22T12:15:56.708Z,12.40
2018-02-22T12:18:23.671Z,18.03
2018-02-22T12:20:49.861Z,22.60
2018-02-22T12:23:16.085Z,20.40
2018-02-22T12:25:42.275Z,17.60
2018-02-22T12:28:08.488Z,19.93
2018-02-22T12:30:34.681Z,19.40
2018-02-22T12:33:01.808Z,17.53
2018-02-22T12:35:27.996Z,16.50
2018-02-22T12:37:54.188Z,26.00
2018-02-22T12:40:21.147Z,15.87
2018-02-22T12:42:47.344Z,16.83
2018-02-22T12:45:13.562Z,15.90
2018-02-22T12:47:39.753Z,18.13
2018-02-22T12:50:05.969Z,16.57
2018-02-22T12:52:32.925Z,15.50
2018-02-22T12:54:59.142Z,14.80
2018-02-22T12:57:26.068Z,13.20
2018-02-22T12:59:52.297Z,15.00
2018-02-22T13:02:19.246Z,12.70
2018-02-22T13:04:46.536Z,14.67
2018-02-22T13:07:12.727Z,17.43
2018-02-22T13:09:39.709Z,10.63
2018-02-22T13:12:05.908Z,11.10
2018-02-22T13:14:32.868Z,6.07
2018-02-22T13:16:59.801Z,6.57
2018-02-22T13:19:26.760Z,9.27
2018-02-22T13:21:53.692Z,9.43
2018-02-22T13:24:19.899Z,13.67
2018-02-22T13:26:46.860Z,15.27
2018-02-22T13:29:20.688Z,12.13
2018-02-22T13:31:47.616Z,8.27
2018-02-22T13:34:27.560Z,14.30
2018-02-22T13:36:54.493Z,13.03
2018-02-22T13:39:20.712Z,13.00
2018-02-22T13:41:46.896Z,12.93
2018-02-22T13:44:25.600Z,11.13
2018-02-22T13:46:52.527Z,9.70
2018-02-22T13:49:31.080Z,7.60
2018-02-22T13:51:57.296Z,10.13
2018-02-22T13:54:24.311Z,10.77
2018-02-22T13:57:02.860Z,8.67
2018-02-22T13:59:29.856Z,9.83
2018-02-22T14:02:08.301Z,27.37
2018-02-22T14:04:34.525Z,11.40
2018-02-22T14:07:00.747Z,10.77
2018-02-22T14:09:26.968Z,8.50
2018-02-22T14:11:53.184Z,12.97
2018-02-22T14:14:19.417Z,17.50
2018-02-22T14:16:45.604Z,85.57
2018-02-22T14:19:12.150Z,15.00
2018-02-22T14:21:38.331Z,12.03
2018-02-22T14:24:05.293Z,15.70
2018-02-22T14:26:31.512Z,13.83
2018-02-22T14:28:57.701Z,9.53
2018-02-22T14:31:23.929Z,11.73
2018-02-22T14:33:50.108Z,11.73
2018-02-22T14:36:17.068Z,10.93
2018-02-22T14:38:44.000Z,14.13
2018-02-22T14:41:11.021Z,94.70
2018-02-22T14:43:37.212Z,14.40
2018-02-22T14:46:03.452Z,11.40
2018-02-22T14:48:29.642Z,8.67
2018-02-22T14:50:56.612Z,10.97
2018-02-22T14:53:22.804Z,11.67
2018-02-22T14:55:49.772Z,9.77
2018-02-22T14:58:16.696Z,7.80
2018-02-22T15:00:48.933Z,12.50
2018-02-22T15:03:15.153Z,7.10
2018-02-22T15:05:41.404Z,6.30
2018-02-22T15:08:07.597Z,11.43
2018-02-22T15:10:33.821Z,8.77
2018-02-22T15:13:00.036Z,11.50
2018-02-22T15:15:26.256Z,12.13
2018-02-22T15:17:53.189Z,12.70
2018-02-22T15:20:20.241Z,12.20
2018-02-22T15:22:47.177Z,13.40
2018-02-22T15:25:14.124Z,10.90
2018-02-22T15:27:40.344Z,15.60
2018-02-22T15:30:06.537Z,10.03
2018-02-22T15:32:32.757Z,13.50
2018-02-22T15:34:58.949Z,11.73
2018-02-22T15:37:25.912Z,11.17
2018-02-22T15:39:52.105Z,11.17
2018-02-22T15:42:18.324Z,10.37
2018-02-22T15:44:44.516Z,13.03
2018-02-22T15:47:10.744Z,10.63
2018-02-22T15:49:36.932Z,12.03
2018-02-22T15:52:03.148Z,23.17
2018-02-22T15:54:29.344Z,24.27
2018-02-22T15:56:55.560Z,9.67
2018-02-22T15:59:21.749Z,8.07
2018-02-22T16:01:48.715Z,8.10
2018-02-22T16:04:14.911Z,9.90
2018-02-22T16:06:41.162Z,14.60
2018-02-22T16:09:08.084Z,10.73
2018-02-22T16:11:34.308Z,13.97
2018-02-22T16:14:00.502Z,18.90
2018-02-22T16:16:26.724Z,18.57
2018-02-22T16:18:52.912Z,18.07
2018-02-22T16:21:19.191Z,17.00
2018-02-22T16:23:45.384Z,22.93
2018-02-22T16:26:12.311Z,22.10
2018-02-22T16:28:38.532Z,21.97
2018-02-22T16:31:04.708Z,19.77
2018-02-22T16:33:30.957Z,31.40
2018-02-22T16:35:57.161Z,27.80
2018-02-22T16:38:23.380Z,23.43
2018-02-22T16:40:49.572Z,15.57
2018-02-22T16:43:15.801Z,18.67
2018-02-22T16:45:41.988Z,18.80
2018-02-22T16:48:08.528Z,21.27
2018-02-22T16:50:35.164Z,11.87
2018-02-22T16:53:01.385Z,14.40
2018-02-22T16:55:27.588Z,15.50
2018-02-22T16:57:53.824Z,19.80
2018-02-22T17:00:20.764Z,19.07
2018-02-22T17:02:47.721Z,15.43
2018-02-22T17:05:13.910Z,29.83
2018-02-22T17:07:40.158Z,109.90
2018-02-22T17:10:07.096Z,47.47
2018-02-22T17:12:33.325Z,27.63
2018-02-22T17:14:59.521Z,30.90
2018-02-22T17:17:45.663Z,22.27
2018-02-22T17:20:12.604Z,15.67
2018-02-22T17:22:39.543Z,19.80
2018-02-22T17:25:05.996Z,17.70
2018-02-22T17:27:39.323Z,21.07
2018-02-22T17:30:11.613Z,22.43
2018-02-22T17:32:37.820Z,12.90
2018-02-22T17:35:06.029Z,20.93
2018-02-22T17:37:32.240Z,23.87
2018-02-22T17:40:02.320Z,24.03
2018-02-22T17:42:31.509Z,42.97
2018-02-22T17:44:58.492Z,49.03
2018-02-22T17:47:24.696Z,57.50
2018-02-22T17:49:50.917Z,38.03
2018-02-22T17:52:17.844Z,39.20
2018-02-22T17:54:44.769Z,39.33
2018-02-22T17:57:11.756Z,28.67
2018-02-22T17:59:39.377Z,34.40
2018-02-22T18:02:07.039Z,29.00
2018-02-22T18:04:33.581Z,32.33
2018-02-22T18:07:01.341Z,31.23
2018-02-22T18:09:29.110Z,29.30
2018-02-22T18:11:57.354Z,34.67
2018-02-22T18:14:24.430Z,31.23
2018-02-22T18:16:51.992Z,24.40
2018-02-22T18:19:20.679Z,29.53
2018-02-22T18:21:47.657Z,34.73
2018-02-22T18:24:14.629Z,25.73
2018-02-22T18:26:40.823Z,41.93
2018-02-22T18:29:07.096Z,58.97
2018-02-22T18:31:33.284Z,35.07
2018-02-22T18:33:59.477Z,58.23
2018-02-22T18:36:25.721Z,37.80
2018-02-22T18:41:52.515Z,42.67
2018-02-22T18:44:25.601Z,47.10
2018-02-22T18:46:52.549Z,49.37
2018-02-22T18:49:19.516Z,61.37
2018-02-22T18:51:45.708Z,35.37
2018-02-22T18:54:11.948Z,32.67
2018-02-22T18:56:38.872Z,24.23
2018-02-22T18:59:05.056Z,49.07
2018-02-22T19:01:31.296Z,41.07
2018-02-22T19:03:57.510Z,37.33
2018-02-22T19:06:23.728Z,28.87
2018-02-22T19:08:49.925Z,23.87
2018-02-22T19:11:16.884Z,51.53
2018-02-22T19:13:43.816Z,35.30
2018-02-22T19:16:10.750Z,29.37
2018-02-22T19:18:37.727Z,34.30
2018-02-22T19:21:04.695Z,23.40
2018-02-22T19:23:30.896Z,22.03
2018-02-22T19:25:57.935Z,25.43
2018-02-22T19:28:24.315Z,17.33
2018-02-22T19:30:50.540Z,21.20
2018-02-22T19:33:16.728Z,16.57
2018-02-22T19:35:42.953Z,22.17
2018-02-22T19:38:09.891Z,15.33
2018-02-22T19:40:37.595Z,20.83
2018-02-22T19:43:03.791Z,20.37
2018-02-22T19:45:30.024Z,18.23
2018-02-22T19:47:56.213Z,15.30
2018-02-22T19:50:22.436Z,19.03
2018-02-22T19:52:48.667Z,26.67
2018-02-22T19:55:14.880Z,19.23
2018-02-22T19:57:41.076Z,26.47
2018-02-22T20:00:08.036Z,22.23
2018-02-22T20:02:34.968Z,23.40
2018-02-22T20:05:01.933Z,22.00
2018-02-22T20:07:28.151Z,31.60
2018-02-22T20:09:55.108Z,25.77
2018-02-22T20:12:21.308Z,29.60
2018-02-22T20:14:47.500Z,30.23
2018-02-22T20:17:13.729Z,44.20
2018-02-22T20:19:39.923Z,44.93
2018-02-22T20:22:06.149Z,48.00
2018-02-22T20:24:32.344Z,28.93
2018-02-22T20:26:58.565Z,37.67
2018-02-22T20:29:24.752Z,15.23
2018-02-22T20:31:50.973Z,21.83
2018-02-22T20:34:17.164Z,32.73
2018-02-22T20:36:43.412Z,15.17
2018-02-22T20:39:10.339Z,21.60
2018-02-22T20:41:36.560Z,27.40
2018-02-22T20:44:02.753Z,17.87
2018-02-22T20:46:28.980Z,30.20
2018-02-22T20:48:55.171Z,21.57
2018-02-22T20:51:22.160Z,23.50
2018-02-22T20:53:48.373Z,17.73
2018-02-22T20:56:14.612Z,30.17
2018-02-22T20:58:40.827Z,27.77
2018-02-22T21:01:07.044Z,31.47
2018-02-22T21:03:36.149Z,27.60
2018-02-22T21:06:02.360Z,34.17
2018-02-22T21:08:29.320Z,25.27
2018-02-22T21:10:55.603Z,15.37
2018-02-22T21:13:21.792Z,27.87
2018-02-22T21:15:48.003Z,30.90
2018-02-22T21:18:14.196Z,30.63
2018-02-22T21:20:40.430Z,26.17
2018-02-22T21:23:06.624Z,27.37
2018-02-22T21:25:32.844Z,28.10
2018-02-22T21:27:59.075Z,21.83
2018-02-22T21:30:25.335Z,37.90
2018-02-22T21:32:51.524Z,33.07
2018-02-22T21:35:17.712Z,33.47
2018-02-22T21:37:43.932Z,31.77
2018-02-22T21:40:10.129Z,26.20
2018-02-22T21:42:36.347Z,18.80
2018-02-22T21:45:02.532Z,33.63
2018-02-22T21:47:29.492Z,41.10
2018-02-22T21:49:56.425Z,24.07
2018-02-22T21:52:23.392Z,21.80
2018-02-22T21:54:49.584Z,18.20
2018-02-22T21:57:15.812Z,18.83
2018-02-22T21:59:42.012Z,15.50
2018-02-22T22:02:08.276Z,14.87
2018-02-22T22:04:34.532Z,24.70
2018-02-22T22:07:00.795Z,18.03
2018-02-22T22:09:26.989Z,30.40
2018-02-22T22:11:53.955Z,22.97
2018-02-22T22:14:20.142Z,19.37
2018-02-22T22:16:46.365Z,27.87
2018-02-22T22:19:12.552Z,27.47
2018-02-22T22:21:38.776Z,37.33
2018-02-22T22:24:12.015Z,27.03
2018-02-22T22:26:38.233Z,62.97
2018-02-22T22:29:04.444Z,58.50
2018-02-22T22:31:30.660Z,38.23
2018-02-22T22:33:56.845Z,157.53
2018-02-22T22:36:23.803Z,57.73
2018-02-22T22:38:49.992Z,21.97
2018-02-22T22:41:16.208Z,34.60
2018-02-22T22:43:42.391Z,24.87
2018-02-22T22:46:08.612Z,41.77
2018-02-22T22:48:35.544Z,28.47
2018-02-22T22:51:02.504Z,21.53
2018-02-22T22:53:29.431Z,26.73
2018-02-22T22:55:55.648Z,28.70
2018-02-22T22:58:21.839Z,20.83
2018-02-22T23:00:48.061Z,24.37
2018-02-22T23:03:14.314Z,15.07
2018-02-22T23:05:40.963Z,14.40
2018-02-22T23:08:07.186Z,13.03
2018-02-22T23:10:33.371Z,13.63
2018-02-22T23:12:59.596Z,19.83
2018-02-22T23:15:25.792Z,11.70
2018-02-22T23:17:52.008Z,16.50
2018-02-22T23:20:18.197Z,15.40
2018-02-22T23:22:44.415Z,20.13
2018-02-22T23:25:10.669Z,11.20
2018-02-22T23:27:36.900Z,17.43
2018-02-22T23:30:03.152Z,16.13
2018-02-22T23:32:29.368Z,15.73
2018-02-22T23:34:55.577Z,14.20
2018-02-22T23:37:21.825Z,19.20
2018-02-22T23:39:48.037Z,17.70
2018-02-22T23:42:17.249Z,19.30
2018-02-22T23:44:43.465Z,16.87
2018-02-22T23:47:09.727Z,23.97
2018-02-22T23:49:35.935Z,14.90
2018-02-22T23:52:02.385Z,28.03
2018-02-22T23:54:28.595Z,12.70
2018-02-22T23:56:54.816Z,19.87
2018-02-22T23:59:21.052Z,21.60
